createdAt,value
2023-06-30T00:00:58.443Z,0.0
2023-06-30T00:02:59.435Z,0.0
2023-06-30T00:06:00.170Z,0.0
2023-06-30T00:11:00.791Z,0.0
2023-06-30T00:13:01.407Z,0.0
2023-06-30T00:16:02.242Z,0.0
2023-06-30T00:19:02.872Z,0.0
2023-06-30T00:21:03.453Z,0.0
2023-06-30T00:24:04.047Z,0.0
2023-06-30T00:26:04.658Z,0.0
2023-06-30T00:29:05.257Z,0.0
2023-06-30T00:31:05.976Z,0.0
2023-06-30T00:34:06.627Z,0.0
2023-06-30T00:36:07.224Z,0.0
2023-06-30T00:39:07.867Z,0.0
2023-06-30T00:41:08.473Z,0.0
2023-06-30T00:44:09.062Z,0.0
2023-06-30T00:46:09.635Z,0.0
2023-06-30T00:52:10.296Z,0.0
2023-06-30T00:54:10.968Z,0.0
2023-06-30T00:57:11.590Z,0.0
2023-06-30T00:59:12.177Z,0.0
2023-06-30T01:02:12.870Z,0.0
2023-06-30T01:04:13.896Z,0.0
2023-06-30T01:07:14.785Z,0.0
2023-06-30T01:09:15.451Z,0.5
2023-06-30T01:12:16.076Z,0.8
2023-06-30T01:14:16.647Z,0.0
2023-06-30T01:17:17.262Z,0.0
2023-06-30T01:19:17.834Z,0.0
2023-06-30T01:22:18.404Z,0.0
2023-06-30T01:24:19.114Z,0.0
2023-06-30T01:27:20.771Z,0.0
2023-06-30T01:32:21.802Z,0.0
2023-06-30T01:35:22.394Z,0.0
2023-06-30T01:37:22.985Z,0.0
2023-06-30T01:40:23.549Z,0.0
2023-06-30T01:42:24.115Z,0.0
2023-06-30T01:45:24.693Z,0.0
2023-06-30T01:47:25.403Z,0.0
2023-06-30T01:50:26.046Z,0.0
2023-06-30T01:52:26.733Z,0.0
2023-06-30T01:55:27.365Z,0.0
2023-06-30T01:57:27.999Z,0.0
2023-06-30T02:00:28.559Z,0.0
2023-06-30T02:05:29.221Z,0.0
2023-06-30T02:07:30.083Z,0.0
2023-06-30T02:12:30.770Z,0.0
2023-06-30T02:15:31.514Z,0.0
2023-06-30T02:18:32.121Z,0.0
2023-06-30T02:20:32.691Z,0.0
2023-06-30T02:23:33.284Z,0.0
2023-06-30T02:25:33.873Z,0.0
2023-06-30T02:28:34.492Z,0.0
2023-06-30T02:30:35.130Z,0.0
2023-06-30T02:33:35.776Z,0.0
2023-06-30T02:35:36.548Z,0.0
2023-06-30T02:38:37.268Z,0.0
2023-06-30T02:40:37.915Z,0.0
2023-06-30T02:43:38.486Z,0.0
2023-06-30T02:45:39.263Z,0.0
2023-06-30T02:48:39.825Z,0.0
2023-06-30T02:53:40.400Z,0.0
2023-06-30T02:56:41.004Z,0.0
2023-06-30T02:58:41.696Z,0.0
2023-06-30T03:01:42.765Z,0.0
2023-06-30T03:03:43.713Z,0.0
2023-06-30T03:06:44.381Z,0.0
2023-06-30T03:08:44.978Z,0.0
2023-06-30T03:11:45.553Z,0.0
2023-06-30T03:13:46.219Z,0.0
2023-06-30T03:16:47.008Z,0.0
2023-06-30T03:18:47.604Z,0.0
2023-06-30T03:21:48.180Z,0.0
2023-06-30T03:23:48.769Z,0.0
2023-06-30T03:26:49.386Z,0.0
2023-06-30T03:28:50.024Z,0.0
2023-06-30T03:33:50.648Z,0.0
2023-06-30T03:36:51.291Z,0.0
2023-06-30T03:38:51.898Z,0.0
2023-06-30T03:41:52.499Z,0.0
2023-06-30T03:44:53.093Z,0.0
2023-06-30T03:46:53.981Z,0.0
2023-06-30T03:49:54.662Z,0.0
2023-06-30T03:51:55.261Z,0.0
2023-06-30T03:54:55.838Z,0.0
2023-06-30T03:56:56.405Z,0.0
2023-06-30T03:59:57.012Z,0.0
2023-06-30T04:01:57.586Z,0.0
2023-06-30T04:04:58.329Z,0.0
2023-06-30T04:06:59.194Z,0.0
2023-06-30T04:09:59.839Z,0.0
2023-06-30T04:15:00.495Z,0.0
2023-06-30T04:18:01.239Z,0.0
2023-06-30T04:20:01.886Z,0.0
2023-06-30T04:23:02.485Z,0.0
2023-06-30T04:25:03.065Z,0.0
2023-06-30T04:28:03.664Z,0.0
2023-06-30T04:30:04.241Z,0.0
2023-06-30T04:33:04.968Z,0.0
2023-06-30T04:35:05.574Z,0.0
2023-06-30T04:38:06.165Z,0.0
2023-06-30T04:40:06.753Z,0.0
2023-06-30T04:43:07.530Z,0.0
2023-06-30T04:45:08.168Z,0.0
2023-06-30T04:50:08.784Z,0.0
2023-06-30T04:56:09.359Z,0.0
2023-06-30T04:58:10.003Z,0.0
2023-06-30T05:01:10.693Z,0.0
2023-06-30T05:03:11.631Z,0.0
2023-06-30T05:06:12.284Z,0.0
2023-06-30T05:08:12.897Z,0.0
2023-06-30T05:11:13.493Z,0.0
2023-06-30T05:13:14.090Z,0.0
2023-06-30T05:16:14.949Z,0.0
2023-06-30T05:18:15.815Z,0.0
2023-06-30T05:21:16.434Z,0.0
2023-06-30T05:23:17.140Z,0.0
2023-06-30T05:26:17.862Z,0.0
2023-06-30T05:28:18.488Z,0.0
2023-06-30T05:31:19.148Z,0.0
2023-06-30T05:36:19.787Z,0.0
2023-06-30T05:39:20.360Z,0.0
2023-06-30T05:41:20.950Z,0.0
2023-06-30T05:44:21.698Z,0.0
2023-06-30T05:46:22.489Z,0.0
2023-06-30T05:49:23.083Z,0.0
2023-06-30T05:51:23.687Z,0.0
2023-06-30T05:54:24.313Z,0.0
2023-06-30T05:56:24.920Z,0.0
2023-06-30T05:59:25.521Z,0.0
2023-06-30T06:01:26.139Z,0.0
2023-06-30T06:04:27.312Z,0.0
2023-06-30T06:06:27.960Z,0.0
2023-06-30T06:09:28.566Z,0.0
2023-06-30T06:11:29.268Z,0.0
2023-06-30T06:17:29.968Z,0.0
2023-06-30T06:19:30.613Z,0.0
2023-06-30T06:22:31.203Z,0.0
2023-06-30T06:24:31.781Z,0.0
2023-06-30T06:27:32.377Z,0.0
2023-06-30T06:29:33.006Z,0.0
2023-06-30T06:32:33.832Z,0.0
2023-06-30T06:34:34.539Z,0.0
2023-06-30T06:37:35.208Z,0.0
2023-06-30T06:39:35.795Z,0.0
2023-06-30T06:42:36.380Z,0.0
2023-06-30T06:44:40.827Z,0.0
2023-06-30T06:47:41.531Z,0.0
2023-06-30T06:49:42.120Z,0.0
2023-06-30T06:52:42.713Z,0.0
2023-06-30T06:57:43.333Z,0.0
2023-06-30T06:59:43.933Z,0.0
2023-06-30T07:02:44.687Z,0.0
2023-06-30T07:04:45.306Z,0.0
2023-06-30T07:07:46.152Z,0.0
2023-06-30T07:10:46.852Z,0.0
2023-06-30T07:12:47.428Z,0.0
2023-06-30T07:15:48.554Z,0.0
2023-06-30T07:17:49.713Z,0.0
2023-06-30T07:20:50.379Z,0.5
2023-06-30T07:22:50.979Z,0.0
2023-06-30T07:25:51.756Z,0.0
2023-06-30T07:27:52.386Z,0.0
2023-06-30T07:30:52.958Z,0.0
2023-06-30T07:38:53.607Z,0.5
2023-06-30T07:40:59.174Z,0.2
2023-06-30T07:43:00.020Z,0.8
2023-06-30T07:46:00.759Z,1.1
2023-06-30T07:48:01.769Z,1.6
2023-06-30T07:51:10.424Z,1.1
2023-06-30T07:53:10.991Z,0.8
2023-06-30T07:56:11.582Z,1.6
2023-06-30T07:59:12.155Z,1.1
2023-06-30T08:01:12.788Z,3.0
2023-06-30T08:04:14.134Z,1.6
2023-06-30T08:06:15.396Z,1.9
2023-06-30T08:09:16.122Z,2.2
2023-06-30T08:11:16.708Z,3.3
2023-06-30T08:14:17.309Z,1.3
2023-06-30T08:19:50.649Z,1.9
2023-06-30T08:21:51.472Z,2.7
2023-06-30T08:23:52.223Z,5.2
2023-06-30T08:26:52.853Z,2.2
2023-06-30T08:28:53.440Z,2.7
2023-06-30T08:31:54.126Z,3.8
2023-06-30T08:33:54.759Z,1.6
2023-06-30T08:36:55.511Z,0.8
2023-06-30T08:38:56.102Z,1.6
2023-06-30T08:41:56.703Z,2.5
2023-06-30T08:43:57.543Z,2.5
2023-06-30T08:46:58.579Z,2.5
2023-06-30T08:49:59.259Z,4.7
2023-06-30T08:51:59.845Z,3.6
2023-06-30T08:55:00.483Z,2.5
2023-06-30T09:00:01.138Z,2.7
2023-06-30T09:02:01.896Z,2.2
2023-06-30T09:05:02.698Z,5.8
2023-06-30T09:07:03.519Z,1.9
2023-06-30T09:10:04.245Z,3.3
2023-06-30T09:12:04.842Z,4.1
2023-06-30T09:15:05.436Z,5.5
2023-06-30T09:17:06.153Z,2.7
2023-06-30T09:20:06.782Z,3.8
2023-06-30T09:22:57.646Z,4.1
2023-06-30T09:24:58.396Z,2.7
2023-06-30T09:27:59.002Z,5.5
2023-06-30T09:29:59.813Z,6.1
2023-06-30T09:33:00.807Z,3.0
2023-06-30T09:35:01.618Z,4.1
2023-06-30T09:40:02.188Z,3.0
2023-06-30T09:43:02.768Z,3.8
2023-06-30T09:45:03.379Z,3.8
2023-06-30T09:48:08.105Z,4.4
2023-06-30T09:50:08.803Z,2.5
2023-06-30T09:53:09.436Z,4.1
2023-06-30T09:55:10.063Z,5.2
2023-06-30T09:58:10.664Z,4.4
2023-06-30T10:01:11.304Z,3.0
2023-06-30T10:03:12.140Z,1.6
2023-06-30T10:06:12.806Z,5.2
2023-06-30T10:08:13.380Z,4.4
2023-06-30T10:11:14.137Z,2.7
2023-06-30T10:13:15.167Z,6.3
2023-06-30T10:16:15.763Z,3.0
2023-06-30T10:21:16.364Z,3.3
2023-06-30T10:23:16.965Z,3.8
2023-06-30T10:26:17.542Z,4.7
2023-06-30T10:28:18.163Z,5.5
2023-06-30T10:31:18.846Z,4.7
2023-06-30T10:33:19.896Z,2.5
2023-06-30T10:36:20.594Z,2.7
2023-06-30T10:38:21.231Z,2.2
2023-06-30T10:41:21.854Z,0.8
2023-06-30T10:43:22.435Z,0.5
2023-06-30T10:46:23.139Z,0.8
2023-06-30T10:49:23.730Z,0.5
2023-06-30T10:51:24.323Z,0.2
2023-06-30T10:54:24.998Z,1.1
2023-06-30T10:56:25.594Z,0.5
2023-06-30T11:01:26.189Z,0.8
2023-06-30T11:04:27.136Z,0.8
2023-06-30T11:06:28.267Z,1.3
2023-06-30T11:09:28.837Z,0.8
2023-06-30T11:11:29.541Z,0.5
2023-06-30T11:14:30.124Z,1.9
2023-06-30T11:16:30.720Z,1.3
2023-06-30T11:19:31.652Z,3.6
2023-06-30T11:21:32.326Z,3.3
2023-06-30T11:24:32.866Z,1.9
2023-06-30T11:27:33.484Z,2.5
2023-06-30T11:29:34.170Z,3.3
2023-06-30T11:32:34.924Z,3.8
2023-06-30T11:34:35.492Z,2.5
2023-06-30T11:37:36.126Z,2.5
2023-06-30T11:42:36.698Z,0.8
2023-06-30T11:44:37.326Z,0.5
2023-06-30T11:47:37.938Z,1.3
2023-06-30T11:49:38.580Z,1.6
2023-06-30T11:52:39.168Z,0.8
2023-06-30T11:54:39.796Z,0.0
2023-06-30T11:57:40.360Z,0.5
2023-06-30T12:00:40.950Z,1.3
2023-06-30T12:02:41.715Z,0.2
2023-06-30T12:05:42.652Z,1.9
2023-06-30T12:07:43.246Z,1.6
2023-06-30T12:10:44.710Z,1.6
2023-06-30T12:12:45.495Z,1.1
2023-06-30T12:15:46.900Z,1.6
2023-06-30T12:17:47.764Z,0.0
2023-06-30T12:22:48.365Z,2.5
2023-06-30T12:25:48.955Z,2.5
2023-06-30T12:27:49.603Z,1.6
2023-06-30T12:30:50.232Z,1.6
2023-06-30T12:32:50.929Z,1.1
2023-06-30T12:35:51.677Z,2.7
2023-06-30T12:37:52.328Z,2.2
2023-06-30T12:40:52.898Z,2.7
2023-06-30T12:42:53.529Z,3.8
2023-06-30T12:45:54.195Z,4.4
2023-06-30T12:47:55.016Z,4.7
2023-06-30T12:50:55.779Z,3.3
2023-06-30T12:52:56.389Z,0.8
2023-06-30T12:58:56.980Z,1.1
2023-06-30T13:05:57.594Z,2.7
2023-06-30T13:08:58.199Z,0.8
2023-06-30T13:10:58.785Z,0.8
2023-06-30T13:13:59.360Z,0.5
2023-06-30T13:16:00.010Z,0.2
2023-06-30T13:19:00.689Z,0.8
2023-06-30T13:22:01.304Z,0.0
2023-06-30T13:24:01.881Z,1.6
2023-06-30T13:27:02.511Z,2.7
2023-06-30T13:29:03.133Z,1.9
2023-06-30T13:32:03.762Z,1.9
2023-06-30T13:34:04.498Z,1.1
2023-06-30T13:37:05.297Z,1.9
2023-06-30T13:39:06.050Z,0.8
2023-06-30T13:44:06.684Z,1.6
2023-06-30T13:47:07.275Z,1.6
2023-06-30T13:49:07.880Z,1.1
2023-06-30T13:52:08.513Z,0.8
2023-06-30T13:54:09.115Z,0.8
2023-06-30T13:57:09.723Z,0.8
2023-06-30T14:00:10.331Z,0.8
2023-06-30T14:02:10.909Z,1.1
2023-06-30T14:04:11.501Z,1.9
2023-06-30T14:07:12.121Z,0.8
2023-06-30T14:10:12.714Z,0.0
2023-06-30T14:12:13.330Z,0.2
2023-06-30T14:15:13.897Z,1.1
2023-06-30T14:17:14.490Z,0.0
2023-06-30T14:20:15.084Z,0.0
2023-06-30T14:25:15.666Z,0.2
2023-06-30T14:27:16.240Z,0.0
2023-06-30T14:30:16.855Z,0.0
2023-06-30T14:32:17.442Z,0.0
2023-06-30T14:35:18.036Z,0.0
2023-06-30T14:37:18.626Z,0.0
2023-06-30T14:40:19.235Z,0.0
2023-06-30T14:42:33.370Z,0.0
2023-06-30T14:45:34.065Z,0.0
2023-06-30T14:47:34.765Z,0.0
2023-06-30T14:50:35.384Z,0.0
2023-06-30T14:52:36.719Z,0.0
2023-06-30T14:55:40.604Z,0.0
2023-06-30T14:57:41.194Z,0.0
2023-06-30T15:00:41.779Z,0.0
2023-06-30T15:05:42.398Z,0.0
2023-06-30T15:08:42.974Z,0.0
2023-06-30T15:10:43.568Z,0.0
2023-06-30T15:13:44.279Z,0.0
2023-06-30T15:15:45.520Z,0.0
2023-06-30T15:18:46.179Z,0.0
2023-06-30T15:20:46.784Z,0.0
2023-06-30T15:23:47.378Z,0.0
2023-06-30T15:25:49.250Z,0.0
2023-06-30T15:28:50.220Z,0.0
2023-06-30T15:30:50.817Z,0.0
2023-06-30T15:33:51.710Z,0.0
2023-06-30T15:35:52.409Z,0.0
2023-06-30T15:38:53.004Z,0.0
2023-06-30T15:41:22.113Z,0.2
2023-06-30T15:46:23.348Z,0.0
2023-06-30T15:51:23.958Z,0.0
2023-06-30T15:53:24.542Z,0.0
2023-06-30T15:56:25.274Z,0.0
2023-06-30T15:59:25.950Z,0.0
2023-06-30T16:01:26.558Z,0.0
2023-06-30T16:04:27.575Z,0.0
2023-06-30T16:06:28.188Z,0.2
2023-06-30T16:09:28.810Z,0.0
2023-06-30T16:11:29.430Z,1.1
2023-06-30T16:14:30.011Z,0.0
2023-06-30T16:16:30.769Z,0.0
2023-06-30T16:19:31.860Z,0.0
2023-06-30T16:21:32.539Z,0.2
2023-06-30T16:26:33.536Z,0.0
2023-06-30T16:29:34.125Z,1.3
2023-06-30T16:32:34.888Z,3.8
2023-06-30T16:34:36.167Z,1.9
2023-06-30T16:37:37.008Z,2.2
2023-06-30T16:39:37.577Z,1.3
2023-06-30T16:42:40.830Z,0.0
2023-06-30T16:44:41.427Z,0.5
2023-06-30T16:47:45.422Z,0.5
2023-06-30T16:49:47.635Z,0.8
2023-06-30T16:52:48.231Z,1.1
2023-06-30T16:54:48.786Z,1.6
2023-06-30T16:57:49.418Z,3.0
2023-06-30T16:59:50.000Z,2.7
2023-06-30T17:02:51.206Z,1.6
2023-06-30T17:07:51.934Z,0.5
2023-06-30T17:09:52.527Z,0.5
2023-06-30T17:12:53.120Z,0.2
2023-06-30T17:14:53.755Z,1.1
2023-06-30T17:17:54.420Z,4.4
2023-06-30T17:19:55.248Z,1.3
2023-06-30T17:22:55.914Z,0.8
2023-06-30T17:25:56.500Z,3.0
2023-06-30T17:27:57.078Z,3.6
2023-06-30T17:30:57.880Z,3.0
2023-06-30T17:32:58.573Z,5.0
2023-06-30T17:35:59.183Z,3.3
2023-06-30T17:37:59.785Z,6.3
2023-06-30T17:41:00.378Z,2.7
2023-06-30T17:43:00.986Z,4.1
2023-06-30T17:48:01.819Z,2.5
2023-06-30T17:51:02.411Z,2.7
2023-06-30T17:53:03.191Z,1.6
2023-06-30T17:56:03.773Z,2.2
2023-06-30T17:59:04.377Z,0.5
2023-06-30T18:01:04.933Z,1.1
2023-06-30T18:04:06.750Z,0.8
2023-06-30T18:06:07.698Z,0.5
2023-06-30T18:09:08.391Z,0.5
2023-06-30T18:11:10.447Z,0.8
2023-06-30T18:14:11.050Z,0.2
2023-06-30T18:16:11.722Z,1.1
2023-06-30T18:19:12.347Z,1.1
2023-06-30T18:21:12.955Z,1.6
2023-06-30T18:24:13.536Z,1.3
2023-06-30T18:29:14.144Z,0.2
2023-06-30T18:31:14.829Z,0.2
2023-06-30T18:36:15.453Z,0.0
2023-06-30T18:39:16.045Z,0.0
2023-06-30T18:41:16.618Z,0.2
2023-06-30T18:44:17.438Z,0.0
2023-06-30T18:47:18.039Z,0.0
2023-06-30T18:49:18.638Z,0.0
2023-06-30T18:52:19.231Z,0.8
2023-06-30T18:54:19.825Z,0.0
2023-06-30T18:57:20.403Z,0.0
2023-06-30T18:59:21.015Z,0.5
2023-06-30T19:02:21.808Z,0.0
2023-06-30T19:04:22.998Z,0.0
2023-06-30T19:09:23.795Z,0.0
2023-06-30T19:12:24.398Z,0.0
2023-06-30T19:14:25.025Z,0.0
2023-06-30T19:17:25.958Z,0.0
2023-06-30T19:19:26.559Z,0.0
2023-06-30T19:22:27.180Z,0.0
2023-06-30T19:24:27.929Z,0.0
2023-06-30T19:27:28.528Z,0.0
2023-06-30T19:30:29.213Z,0.0
2023-06-30T19:32:29.903Z,0.0
2023-06-30T19:37:30.495Z,0.0
2023-06-30T19:40:31.073Z,0.0
2023-06-30T19:42:31.654Z,0.0
2023-06-30T19:45:32.270Z,0.0
2023-06-30T19:50:32.863Z,0.0
2023-06-30T19:52:33.426Z,0.0
2023-06-30T19:55:34.065Z,0.0
2023-06-30T19:57:34.644Z,0.0
2023-06-30T20:00:35.347Z,0.0
2023-06-30T20:02:36.342Z,0.0
2023-06-30T20:05:37.541Z,0.0
2023-06-30T20:08:38.103Z,0.0
2023-06-30T20:10:38.711Z,0.0
2023-06-30T20:13:39.323Z,0.0
2023-06-30T20:15:39.928Z,0.0
2023-06-30T20:18:40.553Z,0.0
2023-06-30T20:20:41.169Z,0.0
2023-06-30T20:23:41.834Z,0.0
2023-06-30T20:25:42.433Z,0.0
2023-06-30T20:33:43.213Z,0.0
2023-06-30T20:35:43.822Z,0.0
2023-06-30T20:38:44.432Z,0.0
2023-06-30T20:41:45.017Z,0.0
2023-06-30T20:43:45.628Z,0.0
2023-06-30T20:46:46.367Z,0.0
2023-06-30T20:48:47.085Z,0.0
2023-06-30T20:51:47.934Z,0.0
2023-06-30T20:53:48.545Z,0.0
2023-06-30T20:56:49.112Z,0.0
2023-06-30T20:58:49.689Z,0.0
2023-06-30T21:01:50.502Z,0.0
2023-06-30T21:03:51.281Z,0.0
2023-06-30T21:06:51.898Z,0.0
2023-06-30T21:11:52.495Z,0.2
2023-06-30T21:13:53.138Z,0.0
2023-06-30T21:16:53.791Z,0.0
2023-06-30T21:21:54.459Z,0.0
2023-06-30T21:23:55.067Z,0.0
2023-06-30T21:26:55.660Z,0.0
2023-06-30T21:29:56.247Z,0.0
2023-06-30T21:31:57.025Z,0.0
2023-06-30T21:34:57.673Z,0.0
2023-06-30T21:36:58.663Z,0.0
2023-06-30T21:39:59.300Z,0.0
2023-06-30T21:41:59.899Z,0.0
2023-06-30T21:45:00.661Z,0.2
2023-06-30T21:47:01.340Z,0.0
2023-06-30T21:52:01.951Z,0.0
2023-06-30T21:55:02.741Z,0.0
2023-06-30T21:57:03.373Z,0.0
2023-06-30T22:00:04.013Z,0.0
2023-06-30T22:02:04.838Z,0.0
2023-06-30T22:05:05.646Z,0.0
2023-06-30T22:08:06.326Z,0.0
2023-06-30T22:10:06.939Z,0.0
2023-06-30T22:13:07.584Z,0.0
2023-06-30T22:15:08.200Z,0.0
2023-06-30T22:18:08.826Z,0.0
2023-06-30T22:20:09.474Z,0.0
2023-06-30T22:23:10.157Z,0.0
2023-06-30T22:25:10.959Z,0.0
2023-06-30T22:28:11.652Z,0.0
2023-06-30T22:33:12.242Z,0.0
2023-06-30T22:35:12.812Z,0.0
2023-06-30T22:38:13.417Z,0.0
2023-06-30T22:41:14.017Z,0.0
2023-06-30T22:43:14.658Z,0.0
2023-06-30T22:45:15.277Z,0.0
2023-06-30T22:48:15.871Z,0.0
2023-06-30T22:51:16.471Z,0.0
2023-06-30T22:53:17.086Z,0.0
2023-06-30T22:56:17.670Z,0.0
2023-06-30T22:58:18.307Z,0.0
2023-06-30T23:01:19.198Z,0.0
2023-06-30T23:03:20.164Z,0.0
2023-06-30T23:06:20.876Z,0.0
2023-06-30T23:08:21.512Z,0.0
2023-06-30T23:13:22.173Z,0.2
2023-06-30T23:16:22.749Z,0.0
2023-06-30T23:18:23.602Z,0.0
2023-06-30T23:21:24.257Z,0.0
2023-06-30T23:23:24.887Z,0.2
2023-06-30T23:26:25.595Z,0.2
2023-06-30T23:28:26.191Z,0.5
2023-06-30T23:31:26.944Z,0.0
2023-06-30T23:34:27.675Z,0.0
2023-06-30T23:36:28.281Z,0.0
2023-06-30T23:39:28.875Z,0.0
2023-06-30T23:41:29.460Z,0.0
2023-06-30T23:44:30.210Z,0.2
2023-06-30T23:46:30.961Z,0.0
2023-06-30T23:49:31.617Z,0.0
2023-06-30T23:54:32.200Z,0.0
2023-06-30T23:56:32.771Z,0.0
2023-06-30T23:59:33.415Z,0.0
